sensor_id;sensor_type;location;lat;lon;timestamp;P1;durP1;ratioP1;P2;durP2;ratioP2
73100;SDS011;61288;53.446;-2.266;2023-02-28T00:00:32;4.18;;;1.65;;
73100;SDS011;61288;53.446;-2.266;2023-02-28T00:03:00;4.38;;;1.75;;
73100;SDS011;61288;53.446;-2.266;2023-02-28T00:05:26;8.65;;;2.10;;
73100;SDS011;61288;53.446;-2.266;2023-02-28T00:07:52;4.53;;;1.77;;
73100;SDS011;61288;53.446;-2.266;2023-02-28T00:10:19;5.05;;;1.92;;
73100;SDS011;61288;53.446;-2.266;2023-02-28T00:12:50;4.72;;;1.60;;
73100;SDS011;61288;53.446;-2.266;2023-02-28T00:15:16;4.80;;;1.73;;
73100;SDS011;61288;53.446;-2.266;2023-02-28T00:17:42;6.30;;;2.00;;
73100;SDS011;61288;53.446;-2.266;2023-02-28T00:20:08;4.57;;;2.00;;
73100;SDS011;61288;53.446;-2.266;2023-02-28T00:22:41;3.90;;;1.70;;
73100;SDS011;61288;53.446;-2.266;2023-02-28T00:25:08;3.90;;;1.70;;
73100;SDS011;61288;53.446;-2.266;2023-02-28T00:27:35;4.43;;;1.60;;
73100;SDS011;61288;53.446;-2.266;2023-02-28T00:30:02;5.07;;;2.00;;
73100;SDS011;61288;53.446;-2.266;2023-02-28T00:32:31;4.90;;;1.60;;
73100;SDS011;61288;53.446;-2.266;2023-02-28T00:34:57;4.00;;;1.50;;
73100;SDS011;61288;53.446;-2.266;2023-02-28T00:37:22;5.85;;;1.90;;
73100;SDS011;61288;53.446;-2.266;2023-02-28T00:39:48;3.50;;;1.63;;
73100;SDS011;61288;53.446;-2.266;2023-02-28T00:42:14;6.40;;;1.70;;
73100;SDS011;61288;53.446;-2.266;2023-02-28T00:44:39;4.85;;;1.70;;
73100;SDS011;61288;53.446;-2.266;2023-02-28T00:47:04;3.60;;;1.52;;
73100;SDS011;61288;53.446;-2.266;2023-02-28T00:49:30;4.30;;;1.65;;
73100;SDS011;61288;53.446;-2.266;2023-02-28T00:51:56;5.38;;;1.63;;
73100;SDS011;61288;53.446;-2.266;2023-02-28T00:54:22;5.25;;;1.88;;
73100;SDS011;61288;53.446;-2.266;2023-02-28T00:56:48;5.40;;;1.75;;
73100;SDS011;61288;53.446;-2.266;2023-02-28T00:59:14;5.38;;;1.80;;
73100;SDS011;61288;53.446;-2.266;2023-02-28T01:01:41;6.75;;;1.95;;
73100;SDS011;61288;53.446;-2.266;2023-02-28T01:04:07;5.78;;;1.80;;
73100;SDS011;61288;53.446;-2.266;2023-02-28T01:06:33;7.38;;;2.25;;
73100;SDS011;61288;53.446;-2.266;2023-02-28T01:09:01;5.70;;;1.73;;
73100;SDS011;61288;53.446;-2.266;2023-02-28T01:11:27;5.82;;;1.75;;
73100;SDS011;61288;53.446;-2.266;2023-02-28T01:13:53;6.47;;;1.90;;
73100;SDS011;61288;53.446;-2.266;2023-02-28T01:16:26;6.32;;;1.90;;
73100;SDS011;61288;53.446;-2.266;2023-02-28T01:18:52;7.50;;;2.13;;
73100;SDS011;61288;53.446;-2.266;2023-02-28T01:21:18;5.88;;;2.00;;
73100;SDS011;61288;53.446;-2.266;2023-02-28T01:23:45;5.55;;;1.90;;
73100;SDS011;61288;53.446;-2.266;2023-02-28T01:26:21;4.70;;;1.75;;
73100;SDS011;61288;53.446;-2.266;2023-02-28T01:28:48;4.85;;;1.80;;
73100;SDS011;61288;53.446;-2.266;2023-02-28T01:31:14;5.22;;;1.98;;
73100;SDS011;61288;53.446;-2.266;2023-02-28T01:33:45;6.18;;;2.00;;
73100;SDS011;61288;53.446;-2.266;2023-02-28T01:36:12;5.55;;;1.80;;
73100;SDS011;61288;53.446;-2.266;2023-02-28T01:38:42;6.20;;;1.90;;
73100;SDS011;61288;53.446;-2.266;2023-02-28T01:41:09;7.75;;;1.80;;
73100;SDS011;61288;53.446;-2.266;2023-02-28T01:46:07;4.22;;;1.80;;
73100;SDS011;61288;53.446;-2.266;2023-02-28T01:48:33;5.45;;;1.75;;
73100;SDS011;61288;53.446;-2.266;2023-02-28T01:51:11;5.03;;;1.75;;
73100;SDS011;61288;53.446;-2.266;2023-02-28T01:53:44;6.10;;;2.08;;
73100;SDS011;61288;53.446;-2.266;2023-02-28T01:56:17;7.03;;;2.08;;
73100;SDS011;61288;53.446;-2.266;2023-02-28T01:58:48;7.65;;;2.55;;
73100;SDS011;61288;53.446;-2.266;2023-02-28T02:01:15;8.07;;;2.28;;
73100;SDS011;61288;53.446;-2.266;2023-02-28T02:03:53;6.63;;;2.10;;
73100;SDS011;61288;53.446;-2.266;2023-02-28T02:06:23;8.15;;;2.22;;
73100;SDS011;61288;53.446;-2.266;2023-02-28T02:08:52;6.65;;;2.17;;
73100;SDS011;61288;53.446;-2.266;2023-02-28T02:11:19;7.60;;;2.25;;
73100;SDS011;61288;53.446;-2.266;2023-02-28T02:16:33;7.22;;;2.28;;
73100;SDS011;61288;53.446;-2.266;2023-02-28T02:19:44;5.43;;;2.10;;
73100;SDS011;61288;53.446;-2.266;2023-02-28T02:22:37;8.82;;;2.40;;
73100;SDS011;61288;53.446;-2.266;2023-02-28T02:25:42;5.72;;;1.98;;
73100;SDS011;61288;53.446;-2.266;2023-02-28T02:28:51;6.07;;;2.13;;
73100;SDS011;61288;53.446;-2.266;2023-02-28T02:32:14;7.43;;;2.03;;
73100;SDS011;61288;53.446;-2.266;2023-02-28T02:38:00;8.82;;;2.38;;
73100;SDS011;61288;53.446;-2.266;2023-02-28T02:43:58;6.60;;;2.55;;
73100;SDS011;61288;53.446;-2.266;2023-02-28T02:46:32;6.82;;;2.47;;
73100;SDS011;61288;53.446;-2.266;2023-02-28T02:49:09;7.13;;;2.10;;
73100;SDS011;61288;53.446;-2.266;2023-02-28T02:51:41;9.68;;;2.45;;
73100;SDS011;61288;53.446;-2.266;2023-02-28T02:54:13;6.28;;;2.10;;
73100;SDS011;61288;53.446;-2.266;2023-02-28T02:56:59;6.18;;;1.95;;
73100;SDS011;61288;53.446;-2.266;2023-02-28T02:59:35;7.53;;;2.25;;
73100;SDS011;61288;53.446;-2.266;2023-02-28T03:02:04;8.40;;;2.40;;
73100;SDS011;61288;53.446;-2.266;2023-02-28T03:04:42;7.30;;;2.10;;
73100;SDS011;61288;53.446;-2.266;2023-02-28T03:07:15;6.20;;;1.98;;
73100;SDS011;61288;53.446;-2.266;2023-02-28T03:09:49;6.97;;;2.40;;
73100;SDS011;61288;53.446;-2.266;2023-02-28T03:12:16;7.00;;;2.10;;
73100;SDS011;61288;53.446;-2.266;2023-02-28T03:17:42;5.82;;;1.77;;
73100;SDS011;61288;53.446;-2.266;2023-02-28T03:23:34;7.43;;;2.60;;
73100;SDS011;61288;53.446;-2.266;2023-02-28T03:26:17;6.60;;;2.08;;
73100;SDS011;61288;53.446;-2.266;2023-02-28T03:29:07;8.18;;;2.50;;
73100;SDS011;61288;53.446;-2.266;2023-02-28T03:34:33;6.47;;;2.33;;
73100;SDS011;61288;53.446;-2.266;2023-02-28T03:37:09;6.25;;;2.30;;
73100;SDS011;61288;53.446;-2.266;2023-02-28T03:39:43;7.00;;;2.20;;
73100;SDS011;61288;53.446;-2.266;2023-02-28T03:42:22;6.55;;;2.22;;
73100;SDS011;61288;53.446;-2.266;2023-02-28T03:44:56;7.15;;;2.30;;
73100;SDS011;61288;53.446;-2.266;2023-02-28T03:47:27;7.45;;;2.38;;
73100;SDS011;61288;53.446;-2.266;2023-02-28T03:52:40;7.03;;;2.25;;
73100;SDS011;61288;53.446;-2.266;2023-02-28T03:55:12;5.72;;;2.30;;
73100;SDS011;61288;53.446;-2.266;2023-02-28T03:57:43;6.35;;;2.15;;
73100;SDS011;61288;53.446;-2.266;2023-02-28T04:00:18;6.22;;;2.13;;
73100;SDS011;61288;53.446;-2.266;2023-02-28T04:02:46;8.77;;;2.20;;
73100;SDS011;61288;53.446;-2.266;2023-02-28T04:05:20;7.55;;;2.30;;
73100;SDS011;61288;53.446;-2.266;2023-02-28T04:07:46;7.85;;;2.35;;
73100;SDS011;61288;53.446;-2.266;2023-02-28T04:10:13;6.75;;;2.10;;
73100;SDS011;61288;53.446;-2.266;2023-02-28T04:12:40;9.20;;;2.40;;
73100;SDS011;61288;53.446;-2.266;2023-02-28T04:15:05;6.85;;;2.35;;
73100;SDS011;61288;53.446;-2.266;2023-02-28T04:17:32;8.23;;;2.72;;
73100;SDS011;61288;53.446;-2.266;2023-02-28T04:19:57;7.75;;;2.20;;
73100;SDS011;61288;53.446;-2.266;2023-02-28T04:22:23;8.30;;;2.60;;
73100;SDS011;61288;53.446;-2.266;2023-02-28T04:24:54;9.25;;;2.78;;
73100;SDS011;61288;53.446;-2.266;2023-02-28T04:27:21;6.93;;;2.22;;
73100;SDS011;61288;53.446;-2.266;2023-02-28T04:29:47;7.40;;;2.35;;
73100;SDS011;61288;53.446;-2.266;2023-02-28T04:32:12;7.93;;;2.30;;
73100;SDS011;61288;53.446;-2.266;2023-02-28T04:34:38;7.13;;;2.10;;
73100;SDS011;61288;53.446;-2.266;2023-02-28T04:37:04;7.40;;;2.55;;
73100;SDS011;61288;53.446;-2.266;2023-02-28T04:39:30;8.13;;;2.60;;
73100;SDS011;61288;53.446;-2.266;2023-02-28T04:44:26;8.95;;;2.30;;
73100;SDS011;61288;53.446;-2.266;2023-02-28T04:46:52;6.32;;;2.35;;
73100;SDS011;61288;53.446;-2.266;2023-02-28T04:49:17;6.88;;;2.38;;
73100;SDS011;61288;53.446;-2.266;2023-02-28T04:51:43;6.47;;;2.10;;
73100;SDS011;61288;53.446;-2.266;2023-02-28T04:54:18;6.88;;;2.40;;
73100;SDS011;61288;53.446;-2.266;2023-02-28T04:56:46;6.53;;;1.90;;
73100;SDS011;61288;53.446;-2.266;2023-02-28T04:59:14;6.38;;;2.00;;
73100;SDS011;61288;53.446;-2.266;2023-02-28T05:01:45;6.55;;;2.20;;
73100;SDS011;61288;53.446;-2.266;2023-02-28T05:04:12;6.28;;;1.88;;
73100;SDS011;61288;53.446;-2.266;2023-02-28T05:06:38;7.05;;;2.05;;
73100;SDS011;61288;53.446;-2.266;2023-02-28T05:09:04;6.55;;;1.90;;
73100;SDS011;61288;53.446;-2.266;2023-02-28T05:11:31;7.10;;;2.13;;
73100;SDS011;61288;53.446;-2.266;2023-02-28T05:14:04;8.05;;;1.98;;
73100;SDS011;61288;53.446;-2.266;2023-02-28T05:16:40;6.45;;;2.10;;
73100;SDS011;61288;53.446;-2.266;2023-02-28T05:19:06;4.72;;;1.75;;
73100;SDS011;61288;53.446;-2.266;2023-02-28T05:21:34;5.00;;;1.90;;
73100;SDS011;61288;53.446;-2.266;2023-02-28T05:24:20;8.13;;;2.20;;
73100;SDS011;61288;53.446;-2.266;2023-02-28T05:26:49;5.45;;;1.80;;
73100;SDS011;61288;53.446;-2.266;2023-02-28T05:29:16;4.25;;;1.58;;
73100;SDS011;61288;53.446;-2.266;2023-02-28T05:37:14;5.60;;;1.40;;
73100;SDS011;61288;53.446;-2.266;2023-02-28T05:39:41;5.10;;;1.60;;
73100;SDS011;61288;53.446;-2.266;2023-02-28T05:42:07;6.00;;;1.38;;
73100;SDS011;61288;53.446;-2.266;2023-02-28T05:44:33;4.32;;;1.30;;
73100;SDS011;61288;53.446;-2.266;2023-02-28T05:46:59;3.63;;;1.20;;
73100;SDS011;61288;53.446;-2.266;2023-02-28T05:49:24;3.08;;;1.27;;
73100;SDS011;61288;53.446;-2.266;2023-02-28T05:51:50;3.40;;;1.17;;
73100;SDS011;61288;53.446;-2.266;2023-02-28T05:54:15;3.08;;;1.40;;
73100;SDS011;61288;53.446;-2.266;2023-02-28T05:56:41;2.17;;;1.02;;
73100;SDS011;61288;53.446;-2.266;2023-02-28T05:59:09;2.60;;;1.15;;
73100;SDS011;61288;53.446;-2.266;2023-02-28T06:04:06;1.83;;;0.80;;
73100;SDS011;61288;53.446;-2.266;2023-02-28T06:06:33;1.85;;;0.88;;
73100;SDS011;61288;53.446;-2.266;2023-02-28T06:08:59;2.15;;;1.00;;
73100;SDS011;61288;53.446;-2.266;2023-02-28T06:11:26;2.78;;;1.10;;
73100;SDS011;61288;53.446;-2.266;2023-02-28T06:13:59;3.13;;;1.20;;
73100;SDS011;61288;53.446;-2.266;2023-02-28T06:16:27;2.60;;;1.00;;
73100;SDS011;61288;53.446;-2.266;2023-02-28T06:18:53;2.50;;;1.00;;
73100;SDS011;61288;53.446;-2.266;2023-02-28T06:21:22;2.05;;;1.00;;
73100;SDS011;61288;53.446;-2.266;2023-02-28T06:23:47;3.25;;;1.05;;
73100;SDS011;61288;53.446;-2.266;2023-02-28T06:26:13;2.25;;;0.98;;
73100;SDS011;61288;53.446;-2.266;2023-02-28T06:28:38;3.53;;;1.25;;
73100;SDS011;61288;53.446;-2.266;2023-02-28T06:31:10;3.28;;;1.00;;
73100;SDS011;61288;53.446;-2.266;2023-02-28T06:33:40;2.38;;;1.17;;
73100;SDS011;61288;53.446;-2.266;2023-02-28T06:36:06;2.65;;;1.10;;
73100;SDS011;61288;53.446;-2.266;2023-02-28T06:38:33;3.13;;;1.40;;
73100;SDS011;61288;53.446;-2.266;2023-02-28T06:40:59;3.47;;;1.23;;
73100;SDS011;61288;53.446;-2.266;2023-02-28T06:43:28;5.53;;;1.60;;
73100;SDS011;61288;53.446;-2.266;2023-02-28T06:45:56;4.10;;;1.27;;
73100;SDS011;61288;53.446;-2.266;2023-02-28T06:48:23;4.32;;;1.33;;
73100;SDS011;61288;53.446;-2.266;2023-02-28T06:50:49;4.13;;;1.40;;
73100;SDS011;61288;53.446;-2.266;2023-02-28T06:53:16;5.55;;;1.42;;
73100;SDS011;61288;53.446;-2.266;2023-02-28T06:55:41;8.38;;;2.20;;
73100;SDS011;61288;53.446;-2.266;2023-02-28T06:58:10;5.90;;;1.50;;
73100;SDS011;61288;53.446;-2.266;2023-02-28T07:00:41;4.28;;;1.15;;
73100;SDS011;61288;53.446;-2.266;2023-02-28T07:03:07;4.82;;;1.30;;
73100;SDS011;61288;53.446;-2.266;2023-02-28T07:05:34;5.20;;;1.50;;
73100;SDS011;61288;53.446;-2.266;2023-02-28T07:08:00;4.35;;;1.30;;
73100;SDS011;61288;53.446;-2.266;2023-02-28T07:10:26;7.03;;;1.70;;
73100;SDS011;61288;53.446;-2.266;2023-02-28T07:12:52;4.93;;;1.55;;
73100;SDS011;61288;53.446;-2.266;2023-02-28T07:15:17;4.80;;;1.70;;
73100;SDS011;61288;53.446;-2.266;2023-02-28T07:17:43;6.07;;;1.60;;
73100;SDS011;61288;53.446;-2.266;2023-02-28T07:20:08;4.47;;;1.60;;
73100;SDS011;61288;53.446;-2.266;2023-02-28T07:22:34;4.90;;;1.55;;
73100;SDS011;61288;53.446;-2.266;2023-02-28T07:25:00;3.97;;;1.30;;
73100;SDS011;61288;53.446;-2.266;2023-02-28T07:27:25;6.32;;;1.60;;
73100;SDS011;61288;53.446;-2.266;2023-02-28T07:29:52;7.43;;;1.77;;
73100;SDS011;61288;53.446;-2.266;2023-02-28T07:32:19;5.10;;;1.40;;
73100;SDS011;61288;53.446;-2.266;2023-02-28T07:34:46;7.13;;;1.45;;
73100;SDS011;61288;53.446;-2.266;2023-02-28T07:37:17;4.18;;;1.52;;
73100;SDS011;61288;53.446;-2.266;2023-02-28T07:39:42;5.50;;;1.30;;
73100;SDS011;61288;53.446;-2.266;2023-02-28T07:42:07;7.20;;;1.60;;
73100;SDS011;61288;53.446;-2.266;2023-02-28T07:44:36;4.47;;;1.35;;
73100;SDS011;61288;53.446;-2.266;2023-02-28T07:47:06;4.43;;;1.60;;
73100;SDS011;61288;53.446;-2.266;2023-02-28T07:49:34;5.68;;;1.70;;
73100;SDS011;61288;53.446;-2.266;2023-02-28T07:52:00;5.28;;;1.60;;
73100;SDS011;61288;53.446;-2.266;2023-02-28T07:54:28;5.55;;;1.50;;
73100;SDS011;61288;53.446;-2.266;2023-02-28T07:56:57;4.07;;;1.40;;
73100;SDS011;61288;53.446;-2.266;2023-02-28T07:59:23;4.25;;;1.55;;
73100;SDS011;61288;53.446;-2.266;2023-02-28T08:01:49;3.90;;;1.40;;
73100;SDS011;61288;53.446;-2.266;2023-02-28T08:04:18;4.97;;;1.50;;
73100;SDS011;61288;53.446;-2.266;2023-02-28T08:07:00;4.47;;;1.15;;
73100;SDS011;61288;53.446;-2.266;2023-02-28T08:09:26;4.72;;;1.70;;
73100;SDS011;61288;53.446;-2.266;2023-02-28T08:11:52;8.75;;;1.73;;
73100;SDS011;61288;53.446;-2.266;2023-02-28T08:14:17;5.18;;;1.42;;
73100;SDS011;61288;53.446;-2.266;2023-02-28T08:16:46;5.38;;;1.30;;
73100;SDS011;61288;53.446;-2.266;2023-02-28T08:19:11;5.65;;;1.55;;
73100;SDS011;61288;53.446;-2.266;2023-02-28T08:21:37;3.03;;;1.50;;
73100;SDS011;61288;53.446;-2.266;2023-02-28T08:24:03;6.78;;;1.60;;
73100;SDS011;61288;53.446;-2.266;2023-02-28T08:26:28;6.43;;;1.30;;
73100;SDS011;61288;53.446;-2.266;2023-02-28T08:28:54;3.47;;;1.50;;
73100;SDS011;61288;53.446;-2.266;2023-02-28T08:31:22;5.53;;;1.42;;
73100;SDS011;61288;53.446;-2.266;2023-02-28T08:33:48;4.90;;;1.80;;
73100;SDS011;61288;53.446;-2.266;2023-02-28T08:36:16;3.95;;;1.35;;
73100;SDS011;61288;53.446;-2.266;2023-02-28T08:38:42;5.90;;;1.50;;
73100;SDS011;61288;53.446;-2.266;2023-02-28T08:41:09;5.32;;;1.30;;
73100;SDS011;61288;53.446;-2.266;2023-02-28T08:43:38;4.93;;;1.20;;
73100;SDS011;61288;53.446;-2.266;2023-02-28T08:46:15;3.55;;;1.13;;
73100;SDS011;61288;53.446;-2.266;2023-02-28T08:48:41;2.33;;;1.20;;
73100;SDS011;61288;53.446;-2.266;2023-02-28T08:51:07;4.10;;;1.20;;
73100;SDS011;61288;53.446;-2.266;2023-02-28T08:53:35;3.90;;;1.13;;
73100;SDS011;61288;53.446;-2.266;2023-02-28T08:56:07;4.10;;;1.20;;
73100;SDS011;61288;53.446;-2.266;2023-02-28T08:58:41;3.20;;;0.98;;
73100;SDS011;61288;53.446;-2.266;2023-02-28T09:01:07;4.30;;;1.10;;
73100;SDS011;61288;53.446;-2.266;2023-02-28T09:03:42;2.65;;;1.20;;
73100;SDS011;61288;53.446;-2.266;2023-02-28T09:06:09;4.50;;;1.30;;
73100;SDS011;61288;53.446;-2.266;2023-02-28T09:08:42;2.25;;;0.95;;
73100;SDS011;61288;53.446;-2.266;2023-02-28T09:11:08;5.60;;;1.58;;
73100;SDS011;61288;53.446;-2.266;2023-02-28T09:13:38;4.03;;;1.77;;
73100;SDS011;61288;53.446;-2.266;2023-02-28T09:16:11;4.63;;;1.30;;
73100;SDS011;61288;53.446;-2.266;2023-02-28T09:18:41;3.97;;;1.20;;
73100;SDS011;61288;53.446;-2.266;2023-02-28T09:21:08;2.70;;;1.10;;
73100;SDS011;61288;53.446;-2.266;2023-02-28T09:23:39;3.35;;;1.38;;
73100;SDS011;61288;53.446;-2.266;2023-02-28T09:26:06;4.75;;;1.30;;
73100;SDS011;61288;53.446;-2.266;2023-02-28T09:28:43;2.45;;;1.00;;
73100;SDS011;61288;53.446;-2.266;2023-02-28T09:31:19;2.05;;;1.00;;
73100;SDS011;61288;53.446;-2.266;2023-02-28T09:33:56;3.30;;;0.98;;
73100;SDS011;61288;53.446;-2.266;2023-02-28T09:36:27;4.45;;;1.20;;
73100;SDS011;61288;53.446;-2.266;2023-02-28T09:38:53;2.08;;;0.82;;
73100;SDS011;61288;53.446;-2.266;2023-02-28T09:41:25;4.30;;;1.00;;
73100;SDS011;61288;53.446;-2.266;2023-02-28T09:43:59;3.35;;;1.38;;
73100;SDS011;61288;53.446;-2.266;2023-02-28T09:49:02;2.15;;;1.00;;
73100;SDS011;61288;53.446;-2.266;2023-02-28T09:51:52;4.93;;;1.17;;
73100;SDS011;61288;53.446;-2.266;2023-02-28T09:54:27;1.38;;;1.00;;
73100;SDS011;61288;53.446;-2.266;2023-02-28T09:57:02;3.55;;;1.08;;
73100;SDS011;61288;53.446;-2.266;2023-02-28T10:05:33;1.90;;;1.00;;
73100;SDS011;61288;53.446;-2.266;2023-02-28T10:08:14;2.67;;;0.88;;
73100;SDS011;61288;53.446;-2.266;2023-02-28T10:10:51;3.00;;;1.05;;
73100;SDS011;61288;53.446;-2.266;2023-02-28T10:19:40;2.53;;;0.93;;
73100;SDS011;61288;53.446;-2.266;2023-02-28T10:25:05;4.32;;;1.17;;
73100;SDS011;61288;53.446;-2.266;2023-02-28T10:27:42;4.68;;;1.33;;
73100;SDS011;61288;53.446;-2.266;2023-02-28T10:30:12;2.20;;;1.10;;
73100;SDS011;61288;53.446;-2.266;2023-02-28T10:32:39;3.30;;;1.20;;
73100;SDS011;61288;53.446;-2.266;2023-02-28T10:35:25;6.55;;;1.20;;
73100;SDS011;61288;53.446;-2.266;2023-02-28T10:37:55;5.68;;;1.30;;
73100;SDS011;61288;53.446;-2.266;2023-02-28T10:40:32;5.28;;;1.10;;
73100;SDS011;61288;53.446;-2.266;2023-02-28T10:43:05;2.60;;;0.98;;
73100;SDS011;61288;53.446;-2.266;2023-02-28T10:45:56;2.50;;;1.27;;
73100;SDS011;61288;53.446;-2.266;2023-02-28T10:51:11;3.17;;;1.20;;
73100;SDS011;61288;53.446;-2.266;2023-02-28T11:04:01;1.88;;;0.73;;
73100;SDS011;61288;53.446;-2.266;2023-02-28T11:06:31;3.83;;;0.93;;
73100;SDS011;61288;53.446;-2.266;2023-02-28T11:09:22;1.83;;;0.68;;
73100;SDS011;61288;53.446;-2.266;2023-02-28T11:11:57;3.63;;;0.85;;
73100;SDS011;61288;53.446;-2.266;2023-02-28T11:14:25;2.83;;;0.80;;
73100;SDS011;61288;53.446;-2.266;2023-02-28T11:16:58;1.52;;;0.70;;
73100;SDS011;61288;53.446;-2.266;2023-02-28T11:19:45;3.63;;;1.00;;
73100;SDS011;61288;53.446;-2.266;2023-02-28T11:22:19;2.38;;;1.00;;
73100;SDS011;61288;53.446;-2.266;2023-02-28T11:25:02;2.17;;;0.50;;
73100;SDS011;61288;53.446;-2.266;2023-02-28T11:27:42;6.60;;;1.00;;
73100;SDS011;61288;53.446;-2.266;2023-02-28T11:33:22;2.00;;;0.95;;
73100;SDS011;61288;53.446;-2.266;2023-02-28T12:53:09;2.25;;;0.90;;
73100;SDS011;61288;53.446;-2.266;2023-02-28T12:56:32;4.03;;;0.80;;
73100;SDS011;61288;53.446;-2.266;2023-02-28T13:10:03;1.85;;;0.82;;
73100;SDS011;61288;53.446;-2.266;2023-02-28T13:12:37;1.67;;;1.00;;
73100;SDS011;61288;53.446;-2.266;2023-02-28T13:15:25;3.35;;;1.10;;
73100;SDS011;61288;53.446;-2.266;2023-02-28T13:18:01;2.58;;;0.80;;
73100;SDS011;61288;53.446;-2.266;2023-02-28T13:20:34;2.17;;;0.80;;
73100;SDS011;61288;53.446;-2.266;2023-02-28T13:23:16;2.65;;;0.93;;
73100;SDS011;61288;53.446;-2.266;2023-02-28T13:26:12;3.25;;;1.10;;
73100;SDS011;61288;53.446;-2.266;2023-02-28T13:31:15;1.58;;;0.80;;
73100;SDS011;61288;53.446;-2.266;2023-02-28T13:39:45;2.83;;;1.00;;
73100;SDS011;61288;53.446;-2.266;2023-02-28T13:42:51;4.38;;;1.02;;
73100;SDS011;61288;53.446;-2.266;2023-02-28T13:45:26;2.53;;;1.00;;
73100;SDS011;61288;53.446;-2.266;2023-02-28T13:47:58;2.50;;;0.90;;
73100;SDS011;61288;53.446;-2.266;2023-02-28T13:53:34;2.90;;;1.00;;
73100;SDS011;61288;53.446;-2.266;2023-02-28T13:56:35;3.50;;;1.10;;
73100;SDS011;61288;53.446;-2.266;2023-02-28T14:02:27;3.58;;;0.95;;
73100;SDS011;61288;53.446;-2.266;2023-02-28T14:04:57;2.20;;;0.90;;
73100;SDS011;61288;53.446;-2.266;2023-02-28T14:07:37;2.78;;;1.13;;
73100;SDS011;61288;53.446;-2.266;2023-02-28T14:10:15;2.25;;;1.10;;
73100;SDS011;61288;53.446;-2.266;2023-02-28T14:18:14;2.85;;;1.00;;
73100;SDS011;61288;53.446;-2.266;2023-02-28T14:20:49;5.32;;;1.10;;
73100;SDS011;61288;53.446;-2.266;2023-02-28T14:23:49;2.22;;;0.80;;
73100;SDS011;61288;53.446;-2.266;2023-02-28T14:29:35;1.67;;;0.75;;
73100;SDS011;61288;53.446;-2.266;2023-02-28T14:35:02;2.22;;;0.63;;
73100;SDS011;61288;53.446;-2.266;2023-02-28T14:43:17;1.98;;;0.82;;
73100;SDS011;61288;53.446;-2.266;2023-02-28T14:45:49;3.47;;;0.82;;
73100;SDS011;61288;53.446;-2.266;2023-02-28T14:48:20;5.32;;;0.90;;
73100;SDS011;61288;53.446;-2.266;2023-02-28T14:51:01;3.40;;;0.70;;
73100;SDS011;61288;53.446;-2.266;2023-02-28T14:53:28;2.80;;;0.98;;
73100;SDS011;61288;53.446;-2.266;2023-02-28T14:55:55;1.35;;;0.52;;
73100;SDS011;61288;53.446;-2.266;2023-02-28T14:58:26;2.15;;;0.70;;
73100;SDS011;61288;53.446;-2.266;2023-02-28T15:00:59;1.45;;;0.80;;
73100;SDS011;61288;53.446;-2.266;2023-02-28T15:08:29;3.17;;;0.60;;
73100;SDS011;61288;53.446;-2.266;2023-02-28T15:11:05;1.80;;;0.65;;
73100;SDS011;61288;53.446;-2.266;2023-02-28T15:13:54;6.43;;;0.75;;
73100;SDS011;61288;53.446;-2.266;2023-02-28T15:19:13;3.00;;;0.75;;
73100;SDS011;61288;53.446;-2.266;2023-02-28T15:21:47;3.75;;;0.80;;
73100;SDS011;61288;53.446;-2.266;2023-02-28T15:24:20;3.30;;;0.82;;
73100;SDS011;61288;53.446;-2.266;2023-02-28T15:27:06;0.77;;;0.70;;
73100;SDS011;61288;53.446;-2.266;2023-02-28T15:29:49;1.60;;;0.80;;
73100;SDS011;61288;53.446;-2.266;2023-02-28T15:32:37;1.65;;;0.73;;
73100;SDS011;61288;53.446;-2.266;2023-02-28T15:38:02;3.40;;;0.90;;
73100;SDS011;61288;53.446;-2.266;2023-02-28T15:40:50;1.58;;;0.75;;
73100;SDS011;61288;53.446;-2.266;2023-02-28T15:43:27;2.38;;;0.80;;
73100;SDS011;61288;53.446;-2.266;2023-02-28T15:46:07;3.17;;;0.77;;
73100;SDS011;61288;53.446;-2.266;2023-02-28T15:48:50;2.13;;;1.00;;
73100;SDS011;61288;53.446;-2.266;2023-02-28T15:51:29;5.35;;;1.05;;
73100;SDS011;61288;53.446;-2.266;2023-02-28T15:56:35;2.60;;;0.90;;
73100;SDS011;61288;53.446;-2.266;2023-02-28T15:59:28;1.77;;;0.90;;
73100;SDS011;61288;53.446;-2.266;2023-02-28T16:07:34;4.05;;;0.82;;
73100;SDS011;61288;53.446;-2.266;2023-02-28T16:10:22;2.78;;;1.02;;
73100;SDS011;61288;53.446;-2.266;2023-02-28T16:12:51;2.10;;;0.98;;
73100;SDS011;61288;53.446;-2.266;2023-02-28T16:15:26;4.35;;;0.90;;
73100;SDS011;61288;53.446;-2.266;2023-02-28T16:18:19;3.97;;;1.25;;
73100;SDS011;61288;53.446;-2.266;2023-02-28T16:20:44;1.58;;;0.73;;
73100;SDS011;61288;53.446;-2.266;2023-02-28T16:23:10;4.00;;;1.10;;
73100;SDS011;61288;53.446;-2.266;2023-02-28T16:25:36;3.83;;;0.80;;
73100;SDS011;61288;53.446;-2.266;2023-02-28T16:28:03;1.70;;;0.93;;
73100;SDS011;61288;53.446;-2.266;2023-02-28T16:30:33;3.28;;;0.70;;
73100;SDS011;61288;53.446;-2.266;2023-02-28T16:32:59;2.22;;;0.80;;
73100;SDS011;61288;53.446;-2.266;2023-02-28T16:35:25;2.67;;;0.90;;
73100;SDS011;61288;53.446;-2.266;2023-02-28T16:37:54;4.60;;;1.10;;
73100;SDS011;61288;53.446;-2.266;2023-02-28T16:40:22;3.40;;;0.98;;
73100;SDS011;61288;53.446;-2.266;2023-02-28T16:42:50;3.42;;;0.70;;
73100;SDS011;61288;53.446;-2.266;2023-02-28T16:45:26;2.75;;;0.73;;
73100;SDS011;61288;53.446;-2.266;2023-02-28T16:47:53;4.53;;;0.75;;
73100;SDS011;61288;53.446;-2.266;2023-02-28T16:50:23;2.75;;;0.80;;
73100;SDS011;61288;53.446;-2.266;2023-02-28T16:52:53;1.92;;;1.00;;
73100;SDS011;61288;53.446;-2.266;2023-02-28T16:55:19;2.85;;;1.02;;
73100;SDS011;61288;53.446;-2.266;2023-02-28T16:57:47;3.45;;;1.13;;
73100;SDS011;61288;53.446;-2.266;2023-02-28T17:00:19;1.60;;;0.80;;
73100;SDS011;61288;53.446;-2.266;2023-02-28T17:02:45;4.95;;;1.00;;
73100;SDS011;61288;53.446;-2.266;2023-02-28T17:05:11;4.28;;;1.00;;
73100;SDS011;61288;53.446;-2.266;2023-02-28T17:07:38;4.65;;;1.00;;
73100;SDS011;61288;53.446;-2.266;2023-02-28T17:10:12;4.80;;;1.10;;
73100;SDS011;61288;53.446;-2.266;2023-02-28T17:12:39;4.32;;;1.30;;
73100;SDS011;61288;53.446;-2.266;2023-02-28T17:15:05;2.72;;;0.95;;
73100;SDS011;61288;53.446;-2.266;2023-02-28T17:17:31;2.67;;;1.08;;
73100;SDS011;61288;53.446;-2.266;2023-02-28T17:19:57;4.18;;;1.33;;
73100;SDS011;61288;53.446;-2.266;2023-02-28T17:22:23;3.15;;;1.20;;
73100;SDS011;61288;53.446;-2.266;2023-02-28T17:24:51;5.00;;;1.30;;
73100;SDS011;61288;53.446;-2.266;2023-02-28T17:27:20;4.00;;;1.33;;
73100;SDS011;61288;53.446;-2.266;2023-02-28T17:29:47;4.28;;;1.10;;
73100;SDS011;61288;53.446;-2.266;2023-02-28T17:32:13;2.72;;;1.20;;
73100;SDS011;61288;53.446;-2.266;2023-02-28T17:34:38;3.60;;;1.52;;
73100;SDS011;61288;53.446;-2.266;2023-02-28T17:37:04;1.73;;;1.00;;
73100;SDS011;61288;53.446;-2.266;2023-02-28T17:39:29;4.53;;;1.25;;
73100;SDS011;61288;53.446;-2.266;2023-02-28T17:41:56;4.20;;;1.50;;
73100;SDS011;61288;53.446;-2.266;2023-02-28T17:44:21;5.18;;;1.45;;
73100;SDS011;61288;53.446;-2.266;2023-02-28T17:46:51;3.78;;;1.40;;
73100;SDS011;61288;53.446;-2.266;2023-02-28T17:49:19;3.10;;;1.30;;
73100;SDS011;61288;53.446;-2.266;2023-02-28T17:51:45;6.82;;;1.17;;
73100;SDS011;61288;53.446;-2.266;2023-02-28T17:54:11;3.30;;;1.00;;
73100;SDS011;61288;53.446;-2.266;2023-02-28T17:56:39;5.25;;;1.30;;
73100;SDS011;61288;53.446;-2.266;2023-02-28T17:59:05;3.05;;;1.30;;
73100;SDS011;61288;53.446;-2.266;2023-02-28T18:01:31;5.40;;;1.33;;
73100;SDS011;61288;53.446;-2.266;2023-02-28T18:03:56;4.07;;;1.40;;
73100;SDS011;61288;53.446;-2.266;2023-02-28T18:06:23;2.75;;;1.17;;
73100;SDS011;61288;53.446;-2.266;2023-02-28T18:08:52;3.92;;;1.30;;
73100;SDS011;61288;53.446;-2.266;2023-02-28T18:11:18;3.25;;;1.30;;
73100;SDS011;61288;53.446;-2.266;2023-02-28T18:13:45;2.85;;;1.00;;
73100;SDS011;61288;53.446;-2.266;2023-02-28T18:16:12;5.40;;;1.20;;
73100;SDS011;61288;53.446;-2.266;2023-02-28T18:18:39;7.05;;;1.20;;
73100;SDS011;61288;53.446;-2.266;2023-02-28T18:21:06;3.80;;;1.20;;
73100;SDS011;61288;53.446;-2.266;2023-02-28T18:23:33;3.35;;;1.13;;